sensor_id;sensor_type;location;lat;lon;timestamp;pressure;altitude;pressure_sealevel;temperature;humidity
12759;BME280;20944;47.048;15.390;2023-04-25T00:00:45;96776.19;;;9.90;100.00
12759;BME280;20944;47.048;15.390;2023-04-25T00:03:13;96799.19;;;10.04;100.00
12759;BME280;20944;47.048;15.390;2023-04-25T00:05:41;96794.94;;;10.01;100.00
12759;BME280;20944;47.048;15.390;2023-04-25T00:08:10;96790.81;;;9.95;100.00
12759;BME280;20944;47.048;15.390;2023-04-25T00:10:40;96788.91;;;9.99;100.00
12759;BME280;20944;47.048;15.390;2023-04-25T00:13:08;96763.50;;;9.79;100.00
12759;BME280;20944;47.048;15.390;2023-04-25T00:15:38;96766.81;;;9.84;100.00
12759;BME280;20944;47.048;15.390;2023-04-25T00:18:08;96455.13;;;7.98;100.00
12759;BME280;20944;47.048;15.390;2023-04-25T00:20:37;96756.75;;;9.73;100.00
12759;BME280;20944;47.048;15.390;2023-04-25T00:23:06;96772.97;;;9.83;100.00
12759;BME280;20944;47.048;15.390;2023-04-25T00:25:34;96780.81;;;9.83;100.00
12759;BME280;20944;47.048;15.390;2023-04-25T00:28:04;96773.06;;;9.80;100.00
12759;BME280;20944;47.048;15.390;2023-04-25T00:30:32;96774.09;;;9.76;100.00
12759;BME280;20944;47.048;15.390;2023-04-25T00:33:00;96780.13;;;9.78;100.00
12759;BME280;20944;47.048;15.390;2023-04-25T00:35:28;96773.44;;;9.71;100.00
12759;BME280;20944;47.048;15.390;2023-04-25T00:37:56;96769.13;;;9.70;100.00
12759;BME280;20944;47.048;15.390;2023-04-25T00:40:24;96780.13;;;9.78;100.00
12759;BME280;20944;47.048;15.390;2023-04-25T00:42:53;96741.81;;;9.54;100.00
12759;BME280;20944;47.048;15.390;2023-04-25T00:45:27;96718.59;;;9.46;100.00
12759;BME280;20944;47.048;15.390;2023-04-25T00:47:56;96770.56;;;9.77;100.00
12759;BME280;20944;47.048;15.390;2023-04-25T00:50:24;96772.34;;;9.77;100.00
12759;BME280;20944;47.048;15.390;2023-04-25T00:52:53;96777.34;;;9.83;100.00
12759;BME280;20944;47.048;15.390;2023-04-25T00:55:21;96773.97;;;9.79;100.00
12759;BME280;20944;47.048;15.390;2023-04-25T00:57:50;96773.25;;;9.76;100.00
12759;BME280;20944;47.048;15.390;2023-04-25T01:00:18;96746.97;;;9.57;100.00
12759;BME280;20944;47.048;15.390;2023-04-25T01:02:49;96777.66;;;9.75;100.00
12759;BME280;20944;47.048;15.390;2023-04-25T01:05:18;96743.50;;;9.56;100.00
12759;BME280;20944;47.048;15.390;2023-04-25T01:07:46;96721.50;;;9.38;100.00
12759;BME280;20944;47.048;15.390;2023-04-25T01:10:15;96764.84;;;9.67;100.00
12759;BME280;20944;47.048;15.390;2023-04-25T01:12:43;96767.41;;;9.69;100.00
12759;BME280;20944;47.048;15.390;2023-04-25T01:15:11;96754.59;;;9.61;100.00
12759;BME280;20944;47.048;15.390;2023-04-25T01:17:40;96754.50;;;9.64;100.00
12759;BME280;20944;47.048;15.390;2023-04-25T01:20:11;96764.13;;;9.64;100.00
12759;BME280;20944;47.048;15.390;2023-04-25T01:22:41;96691.06;;;9.14;100.00
12759;BME280;20944;47.048;15.390;2023-04-25T01:25:10;96743.66;;;9.52;100.00
12759;BME280;20944;47.048;15.390;2023-04-25T01:27:38;96782.34;;;9.65;100.00
12759;BME280;20944;47.048;15.390;2023-04-25T01:30:07;96771.09;;;9.63;100.00
12759;BME280;20944;47.048;15.390;2023-04-25T01:32:36;96774.88;;;9.56;100.00
12759;BME280;20944;47.048;15.390;2023-04-25T01:35:07;96763.59;;;9.54;100.00
12759;BME280;20944;47.048;15.390;2023-04-25T01:37:36;96771.50;;;9.53;100.00
12759;BME280;20944;47.048;15.390;2023-04-25T01:40:07;96777.09;;;9.43;100.00
12759;BME280;20944;47.048;15.390;2023-04-25T01:42:41;96783.41;;;9.38;100.00
12759;BME280;20944;47.048;15.390;2023-04-25T01:45:10;96765.19;;;9.35;100.00
12759;BME280;20944;47.048;15.390;2023-04-25T01:47:39;96764.69;;;9.25;100.00
12759;BME280;20944;47.048;15.390;2023-04-25T01:50:10;96789.56;;;9.35;100.00
12759;BME280;20944;47.048;15.390;2023-04-25T01:52:38;96777.69;;;9.27;100.00
12759;BME280;20944;47.048;15.390;2023-04-25T01:55:09;96787.25;;;9.28;100.00
12759;BME280;20944;47.048;15.390;2023-04-25T01:57:37;96773.19;;;9.07;100.00
12759;BME280;20944;47.048;15.390;2023-04-25T02:00:06;96774.78;;;9.11;100.00
12759;BME280;20944;47.048;15.390;2023-04-25T02:02:35;96760.06;;;9.08;100.00
12759;BME280;20944;47.048;15.390;2023-04-25T02:05:05;96778.16;;;9.14;100.00
12759;BME280;20944;47.048;15.390;2023-04-25T02:07:33;96782.25;;;8.97;100.00
12759;BME280;20944;47.048;15.390;2023-04-25T02:10:01;96781.75;;;8.87;100.00
12759;BME280;20944;47.048;15.390;2023-04-25T02:12:31;96780.22;;;8.80;100.00
12759;BME280;20944;47.048;15.390;2023-04-25T02:14:59;96785.22;;;8.86;100.00
12759;BME280;20944;47.048;15.390;2023-04-25T02:17:27;96778.22;;;8.88;100.00
12759;BME280;20944;47.048;15.390;2023-04-25T02:19:55;96787.69;;;8.90;100.00
12759;BME280;20944;47.048;15.390;2023-04-25T02:22:23;96791.28;;;8.88;100.00
12759;BME280;20944;47.048;15.390;2023-04-25T02:24:53;96790.91;;;8.74;100.00
12759;BME280;20944;47.048;15.390;2023-04-25T02:27:22;96799.03;;;8.64;100.00
12759;BME280;20944;47.048;15.390;2023-04-25T02:29:52;96803.03;;;8.50;100.00
12759;BME280;20944;47.048;15.390;2023-04-25T02:32:20;96803.63;;;8.58;100.00
12759;BME280;20944;47.048;15.390;2023-04-25T02:34:48;96813.41;;;8.51;100.00
12759;BME280;20944;47.048;15.390;2023-04-25T02:37:16;96808.75;;;8.33;100.00
12759;BME280;20944;47.048;15.390;2023-04-25T02:39:44;96806.09;;;8.36;100.00
12759;BME280;20944;47.048;15.390;2023-04-25T02:42:12;96807.25;;;8.26;100.00
12759;BME280;20944;47.048;15.390;2023-04-25T02:44:41;96808.41;;;8.17;100.00
12759;BME280;20944;47.048;15.390;2023-04-25T02:47:10;96786.16;;;8.05;100.00
12759;BME280;20944;47.048;15.390;2023-04-25T02:49:38;96799.34;;;8.01;100.00
12759;BME280;20944;47.048;15.390;2023-04-25T02:52:07;96796.97;;;7.93;100.00
12759;BME280;20944;47.048;15.390;2023-04-25T02:54:35;96790.94;;;7.91;100.00
12759;BME280;20944;47.048;15.390;2023-04-25T02:57:03;96799.53;;;7.95;100.00
12759;BME280;20944;47.048;15.390;2023-04-25T02:59:32;96791.16;;;7.83;100.00
12759;BME280;20944;47.048;15.390;2023-04-25T03:02:00;96802.50;;;7.82;100.00
12759;BME280;20944;47.048;15.390;2023-04-25T03:04:29;96801.66;;;7.82;100.00
12759;BME280;20944;47.048;15.390;2023-04-25T03:06:58;96798.44;;;7.74;100.00
12759;BME280;20944;47.048;15.390;2023-04-25T03:09:26;96798.78;;;7.62;100.00
12759;BME280;20944;47.048;15.390;2023-04-25T03:11:54;96779.28;;;7.45;100.00
12759;BME280;20944;47.048;15.390;2023-04-25T03:14:22;96796.31;;;7.57;100.00
12759;BME280;20944;47.048;15.390;2023-04-25T03:16:50;96800.91;;;7.49;100.00
12759;BME280;20944;47.048;15.390;2023-04-25T03:19:19;96800.19;;;7.44;100.00
12759;BME280;20944;47.048;15.390;2023-04-25T03:21:48;96805.22;;;7.50;100.00
12759;BME280;20944;47.048;15.390;2023-04-25T03:24:16;96780.41;;;7.37;100.00
12759;BME280;20944;47.048;15.390;2023-04-25T03:26:45;96768.63;;;7.23;100.00
12759;BME280;20944;47.048;15.390;2023-04-25T03:29:13;96796.16;;;7.32;100.00
12759;BME280;20944;47.048;15.390;2023-04-25T03:31:41;96781.84;;;7.16;100.00
12759;BME280;20944;47.048;15.390;2023-04-25T03:34:09;96792.09;;;7.22;100.00
12759;BME280;20944;47.048;15.390;2023-04-25T03:36:37;96789.47;;;7.23;100.00
12759;BME280;20944;47.048;15.390;2023-04-25T03:39:08;96791.13;;;7.26;100.00
12759;BME280;20944;47.048;15.390;2023-04-25T03:41:37;96791.81;;;7.33;100.00
12759;BME280;20944;47.048;15.390;2023-04-25T03:44:05;96792.66;;;7.33;100.00
12759;BME280;20944;47.048;15.390;2023-04-25T03:46:33;96793.72;;;7.26;100.00
12759;BME280;20944;47.048;15.390;2023-04-25T03:49:01;96792.75;;;7.30;100.00
12759;BME280;20944;47.048;15.390;2023-04-25T03:51:29;96790.16;;;7.30;100.00
12759;BME280;20944;47.048;15.390;2023-04-25T03:53:58;96791.41;;;7.15;100.00
12759;BME280;20944;47.048;15.390;2023-04-25T03:56:27;96794.25;;;7.08;100.00
12759;BME280;20944;47.048;15.390;2023-04-25T03:58:55;96800.44;;;7.03;100.00
12759;BME280;20944;47.048;15.390;2023-04-25T04:01:23;96799.78;;;6.95;100.00
12759;BME280;20944;47.048;15.390;2023-04-25T04:03:51;96797.28;;;6.92;100.00
12759;BME280;20944;47.048;15.390;2023-04-25T04:06:20;96795.84;;;6.81;100.00
12759;BME280;20944;47.048;15.390;2023-04-25T04:08:48;96701.78;;;6.29;100.00
12759;BME280;20944;47.048;15.390;2023-04-25T04:11:17;96805.09;;;6.92;100.00
12759;BME280;20944;47.048;15.390;2023-04-25T04:13:46;96810.88;;;7.02;100.00
12759;BME280;20944;47.048;15.390;2023-04-25T04:16:15;96809.25;;;6.99;100.00
12759;BME280;20944;47.048;15.390;2023-04-25T04:18:44;96798.94;;;6.95;100.00
12759;BME280;20944;47.048;15.390;2023-04-25T04:21:12;96810.13;;;6.98;100.00
12759;BME280;20944;47.048;15.390;2023-04-25T04:23:41;96786.28;;;6.81;100.00
12759;BME280;20944;47.048;15.390;2023-04-25T04:26:09;96826.31;;;7.10;100.00
12759;BME280;20944;47.048;15.390;2023-04-25T04:28:39;96822.84;;;7.11;100.00
12759;BME280;20944;47.048;15.390;2023-04-25T04:31:09;96827.94;;;7.14;100.00
12759;BME280;20944;47.048;15.390;2023-04-25T04:33:38;96838.03;;;7.26;100.00
12759;BME280;20944;47.048;15.390;2023-04-25T04:36:06;96807.72;;;7.23;100.00
12759;BME280;20944;47.048;15.390;2023-04-25T04:38:35;96826.47;;;7.36;100.00
12759;BME280;20944;47.048;15.390;2023-04-25T04:41:07;96831.34;;;7.48;100.00
12759;BME280;20944;47.048;15.390;2023-04-25T04:43:35;96821.72;;;7.50;100.00
12759;BME280;20944;47.048;15.390;2023-04-25T04:46:04;96827.00;;;7.47;100.00
12759;BME280;20944;47.048;15.390;2023-04-25T04:48:33;96753.44;;;7.08;100.00
12759;BME280;20944;47.048;15.390;2023-04-25T04:51:02;96829.41;;;7.53;100.00
12759;BME280;20944;47.048;15.390;2023-04-25T04:53:30;96802.66;;;7.48;100.00
12759;BME280;20944;47.048;15.390;2023-04-25T04:55:58;96814.38;;;7.63;100.00
12759;BME280;20944;47.048;15.390;2023-04-25T04:58:26;96813.25;;;7.72;100.00
12759;BME280;20944;47.048;15.390;2023-04-25T05:00:56;96806.25;;;7.74;100.00
12759;BME280;20944;47.048;15.390;2023-04-25T05:03:24;96788.25;;;7.65;100.00
12759;BME280;20944;47.048;15.390;2023-04-25T05:05:55;96819.72;;;7.88;100.00
12759;BME280;20944;47.048;15.390;2023-04-25T05:08:23;96773.41;;;7.68;100.00
12759;BME280;20944;47.048;15.390;2023-04-25T05:10:52;96811.38;;;8.05;100.00
12759;BME280;20944;47.048;15.390;2023-04-25T05:13:20;96816.38;;;8.13;100.00
12759;BME280;20944;47.048;15.390;2023-04-25T05:15:48;96792.22;;;8.06;100.00
12759;BME280;20944;47.048;15.390;2023-04-25T05:18:16;96810.19;;;8.15;100.00
12759;BME280;20944;47.048;15.390;2023-04-25T05:20:46;96804.88;;;8.18;100.00
12759;BME280;20944;47.048;15.390;2023-04-25T05:23:16;96809.91;;;8.24;100.00
12759;BME280;20944;47.048;15.390;2023-04-25T05:25:44;96809.53;;;8.35;100.00
12759;BME280;20944;47.048;15.390;2023-04-25T05:28:12;96801.72;;;8.36;100.00
12759;BME280;20944;47.048;15.390;2023-04-25T05:30:41;96803.34;;;8.65;100.00
12759;BME280;20944;47.048;15.390;2023-04-25T05:33:09;96805.75;;;8.72;100.00
12759;BME280;20944;47.048;15.390;2023-04-25T05:35:38;96821.16;;;8.79;100.00
12759;BME280;20944;47.048;15.390;2023-04-25T05:38:06;96797.22;;;8.93;100.00
12759;BME280;20944;47.048;15.390;2023-04-25T05:40:36;96803.28;;;9.18;100.00
12759;BME280;20944;47.048;15.390;2023-04-25T05:43:04;96811.34;;;9.36;100.00
12759;BME280;20944;47.048;15.390;2023-04-25T05:45:32;96805.84;;;9.43;100.00
12759;BME280;20944;47.048;15.390;2023-04-25T05:48:01;96801.41;;;9.45;100.00
12759;BME280;20944;47.048;15.390;2023-04-25T05:50:29;96812.72;;;9.46;100.00
12759;BME280;20944;47.048;15.390;2023-04-25T05:52:57;96786.03;;;9.36;100.00
12759;BME280;20944;47.048;15.390;2023-04-25T05:55:27;96807.16;;;9.32;100.00
12759;BME280;20944;47.048;15.390;2023-04-25T05:57:57;96779.13;;;9.12;100.00
12759;BME280;20944;47.048;15.390;2023-04-25T06:00:25;96801.50;;;9.42;100.00
12759;BME280;20944;47.048;15.390;2023-04-25T06:02:54;96806.34;;;9.53;100.00
12759;BME280;20944;47.048;15.390;2023-04-25T06:05:23;96802.38;;;9.66;100.00
12759;BME280;20944;47.048;15.390;2023-04-25T06:07:52;96793.97;;;9.82;100.00
12759;BME280;20944;47.048;15.390;2023-04-25T06:10:20;96800.41;;;10.17;100.00
12759;BME280;20944;47.048;15.390;2023-04-25T06:12:49;96799.66;;;10.37;100.00
12759;BME280;20944;47.048;15.390;2023-04-25T06:15:19;96795.09;;;10.42;100.00
12759;BME280;20944;47.048;15.390;2023-04-25T06:17:54;96788.63;;;10.50;100.00
12759;BME280;20944;47.048;15.390;2023-04-25T06:20:23;96785.81;;;10.55;100.00
12759;BME280;20944;47.048;15.390;2023-04-25T06:22:51;96792.94;;;10.51;100.00
12759;BME280;20944;47.048;15.390;2023-04-25T06:25:19;96768.22;;;10.37;100.00
12759;BME280;20944;47.048;15.390;2023-04-25T06:27:48;96765.31;;;10.65;100.00
12759;BME280;20944;47.048;15.390;2023-04-25T06:30:16;96770.78;;;11.01;100.00
12759;BME280;20944;47.048;15.390;2023-04-25T06:32:50;96673.97;;;10.57;100.00
12759;BME280;20944;47.048;15.390;2023-04-25T06:35:20;96765.44;;;11.23;100.00
12759;BME280;20944;47.048;15.390;2023-04-25T06:37:48;96771.91;;;11.34;100.00
12759;BME280;20944;47.048;15.390;2023-04-25T06:40:16;96773.94;;;11.28;100.00
12759;BME280;20944;47.048;15.390;2023-04-25T06:42:45;96770.03;;;11.18;100.00
12759;BME280;20944;47.048;15.390;2023-04-25T06:45:13;96749.53;;;10.87;100.00
12759;BME280;20944;47.048;15.390;2023-04-25T06:47:41;96770.50;;;10.87;100.00
12759;BME280;20944;47.048;15.390;2023-04-25T06:50:11;96777.22;;;10.94;100.00
12759;BME280;20944;47.048;15.390;2023-04-25T06:52:39;96771.03;;;11.15;100.00
12759;BME280;20944;47.048;15.390;2023-04-25T06:55:08;96765.34;;;11.45;100.00
12759;BME280;20944;47.048;15.390;2023-04-25T06:57:36;96761.28;;;11.75;100.00
12759;BME280;20944;47.048;15.390;2023-04-25T07:00:06;96755.56;;;11.86;100.00
12759;BME280;20944;47.048;15.390;2023-04-25T07:02:36;96740.44;;;12.10;100.00
12759;BME280;20944;47.048;15.390;2023-04-25T07:05:05;96741.69;;;12.37;100.00
12759;BME280;20944;47.048;15.390;2023-04-25T07:07:34;96737.41;;;12.54;100.00
12759;BME280;20944;47.048;15.390;2023-04-25T07:10:03;96739.81;;;12.58;100.00
12759;BME280;20944;47.048;15.390;2023-04-25T07:12:32;96719.09;;;12.52;100.00
12759;BME280;20944;47.048;15.390;2023-04-25T07:15:00;96689.47;;;12.49;100.00
12759;BME280;20944;47.048;15.390;2023-04-25T07:17:32;96731.13;;;12.91;100.00
12759;BME280;20944;47.048;15.390;2023-04-25T07:20:01;96728.59;;;12.89;100.00
12759;BME280;20944;47.048;15.390;2023-04-25T07:22:30;96718.31;;;12.67;100.00
12759;BME280;20944;47.048;15.390;2023-04-25T07:25:00;96699.22;;;12.47;100.00
12759;BME280;20944;47.048;15.390;2023-04-25T07:27:28;96713.00;;;12.52;100.00
12759;BME280;20944;47.048;15.390;2023-04-25T07:29:57;96713.53;;;12.58;100.00
12759;BME280;20944;47.048;15.390;2023-04-25T07:32:25;96713.88;;;12.68;100.00
12759;BME280;20944;47.048;15.390;2023-04-25T07:34:53;96719.53;;;12.78;100.00
12759;BME280;20944;47.048;15.390;2023-04-25T07:37:21;96693.69;;;12.86;100.00
12759;BME280;20944;47.048;15.390;2023-04-25T07:39:50;96721.97;;;13.15;100.00
12759;BME280;20944;47.048;15.390;2023-04-25T07:42:19;96642.09;;;12.67;100.00
12759;BME280;20944;47.048;15.390;2023-04-25T07:44:48;96579.31;;;12.28;100.00
12759;BME280;20944;47.048;15.390;2023-04-25T07:47:18;96682.31;;;13.03;100.00
12759;BME280;20944;47.048;15.390;2023-04-25T07:49:47;96730.19;;;13.42;100.00
12759;BME280;20944;47.048;15.390;2023-04-25T07:52:15;96619.63;;;12.95;100.00
12759;BME280;20944;47.048;15.390;2023-04-25T07:54:43;96709.19;;;13.90;100.00
12759;BME280;20944;47.048;15.390;2023-04-25T07:57:11;96701.72;;;14.28;71.58
12759;BME280;20944;47.048;15.390;2023-04-25T07:59:42;96705.16;;;14.44;69.29
12759;BME280;20944;47.048;15.390;2023-04-25T08:02:12;96694.81;;;14.41;57.03
12759;BME280;20944;47.048;15.390;2023-04-25T08:04:43;96700.25;;;14.38;67.54
12759;BME280;20944;47.048;15.390;2023-04-25T08:07:14;96669.75;;;14.34;70.55
12759;BME280;20944;47.048;15.390;2023-04-25T08:09:42;96719.81;;;14.94;67.52
12759;BME280;20944;47.048;15.390;2023-04-25T08:12:10;96694.75;;;15.01;71.69
12759;BME280;20944;47.048;15.390;2023-04-25T08:14:38;96721.09;;;15.17;69.99
12759;BME280;20944;47.048;15.390;2023-04-25T08:17:08;96718.53;;;15.16;65.00
12759;BME280;20944;47.048;15.390;2023-04-25T08:19:36;96699.19;;;15.01;61.66
12759;BME280;20944;47.048;15.390;2023-04-25T08:22:04;96710.53;;;15.03;60.90
12759;BME280;20944;47.048;15.390;2023-04-25T08:24:32;96674.13;;;14.79;60.92
12759;BME280;20944;47.048;15.390;2023-04-25T08:27:04;96702.50;;;15.19;59.16
12759;BME280;20944;47.048;15.390;2023-04-25T08:29:33;96710.06;;;15.25;56.68
12759;BME280;20944;47.048;15.390;2023-04-25T08:32:02;96675.19;;;15.05;60.06
12759;BME280;20944;47.048;15.390;2023-04-25T08:34:31;96716.84;;;15.29;58.80
12759;BME280;20944;47.048;15.390;2023-04-25T08:36:59;96714.09;;;15.30;57.55
12759;BME280;20944;47.048;15.390;2023-04-25T08:39:28;96716.53;;;15.33;57.92
12759;BME280;20944;47.048;15.390;2023-04-25T08:41:56;96711.66;;;15.42;54.76
12759;BME280;20944;47.048;15.390;2023-04-25T08:44:25;96710.22;;;15.50;55.22
12759;BME280;20944;47.048;15.390;2023-04-25T08:46:55;96720.03;;;15.48;51.30
12759;BME280;20944;47.048;15.390;2023-04-25T08:49:24;96724.00;;;15.13;53.74
12759;BME280;20944;47.048;15.390;2023-04-25T08:51:57;96704.56;;;14.85;52.57
12759;BME280;20944;47.048;15.390;2023-04-25T08:54:27;96708.25;;;14.52;53.99
12759;BME280;20944;47.048;15.390;2023-04-25T08:57:02;96726.19;;;14.46;54.85
12759;BME280;20944;47.048;15.390;2023-04-25T08:59:32;96660.44;;;14.13;54.72
12759;BME280;20944;47.048;15.390;2023-04-25T09:02:03;96704.19;;;14.47;54.53
12759;BME280;20944;47.048;15.390;2023-04-25T09:04:31;96622.81;;;13.95;54.29
12759;BME280;20944;47.048;15.390;2023-04-25T09:07:01;96698.81;;;14.32;55.71
12759;BME280;20944;47.048;15.390;2023-04-25T09:09:29;96713.06;;;14.44;52.92
12759;BME280;20944;47.048;15.390;2023-04-25T09:11:58;96706.19;;;14.42;55.00
12759;BME280;20944;47.048;15.390;2023-04-25T09:14:28;96715.16;;;14.69;57.33
12759;BME280;20944;47.048;15.390;2023-04-25T09:17:00;96724.34;;;14.92;54.51
12759;BME280;20944;47.048;15.390;2023-04-25T09:19:30;96715.88;;;15.01;51.95
12759;BME280;20944;47.048;15.390;2023-04-25T09:22:04;96707.59;;;15.07;51.77
12759;BME280;20944;47.048;15.390;2023-04-25T09:24:34;96714.84;;;15.32;51.64
12759;BME280;20944;47.048;15.390;2023-04-25T09:27:04;96617.22;;;15.04;52.45
12759;BME280;20944;47.048;15.390;2023-04-25T09:29:34;96718.63;;;15.71;48.45
12759;BME280;20944;47.048;15.390;2023-04-25T09:32:15;96692.31;;;15.70;49.29
12759;BME280;20944;47.048;15.390;2023-04-25T09:34:45;96716.81;;;15.86;47.78
12759;BME280;20944;47.048;15.390;2023-04-25T09:37:21;96694.56;;;15.61;47.96
12759;BME280;20944;47.048;15.390;2023-04-25T09:39:50;96713.66;;;15.67;48.48
12759;BME280;20944;47.048;15.390;2023-04-25T09:42:22;96720.72;;;15.66;48.17
12759;BME280;20944;47.048;15.390;2023-04-25T09:44:52;96713.94;;;15.62;48.87
12759;BME280;20944;47.048;15.390;2023-04-25T09:47:22;96694.84;;;15.71;49.01
12759;BME280;20944;47.048;15.390;2023-04-25T09:49:52;96713.09;;;16.03;51.57
12759;BME280;20944;47.048;15.390;2023-04-25T09:52:24;96710.38;;;16.04;46.74
12759;BME280;20944;47.048;15.390;2023-04-25T09:54:52;96710.19;;;15.93;45.45
12759;BME280;20944;47.048;15.390;2023-04-25T09:57:22;96695.81;;;15.70;46.22
12759;BME280;20944;47.048;15.390;2023-04-25T09:59:51;96704.22;;;15.48;48.19
12759;BME280;20944;47.048;15.390;2023-04-25T10:02:21;96706.56;;;15.38;46.89
12759;BME280;20944;47.048;15.390;2023-04-25T10:04:51;96690.06;;;15.63;49.40
12759;BME280;20944;47.048;15.390;2023-04-25T10:07:25;96649.84;;;15.58;49.34
12759;BME280;20944;47.048;15.390;2023-04-25T10:09:58;96683.66;;;15.95;49.91
12759;BME280;20944;47.048;15.390;2023-04-25T10:12:28;96621.88;;;15.56;48.38
12759;BME280;20944;47.048;15.390;2023-04-25T10:14:58;96673.53;;;15.74;49.67
12759;BME280;20944;47.048;15.390;2023-04-25T10:17:27;96663.38;;;15.68;47.34
12759;BME280;20944;47.048;15.390;2023-04-25T10:19:56;96582.72;;;15.21;48.39
12759;BME280;20944;47.048;15.390;2023-04-25T10:22:31;96678.94;;;15.73;44.83
12759;BME280;20944;47.048;15.390;2023-04-25T10:25:00;96668.22;;;15.88;46.99
12759;BME280;20944;47.048;15.390;2023-04-25T10:27:31;96646.22;;;15.88;45.79
12759;BME280;20944;47.048;15.390;2023-04-25T10:30:04;96646.38;;;15.99;46.15
12759;BME280;20944;47.048;15.390;2023-04-25T10:32:33;96652.59;;;16.25;44.98
12759;BME280;20944;47.048;15.390;2023-04-25T10:35:19;96652.47;;;16.54;45.09
12759;BME280;20944;47.048;15.390;2023-04-25T10:38:03;96624.94;;;16.56;43.37
12759;BME280;20944;47.048;15.390;2023-04-25T10:40:32;96649.41;;;16.60;40.75
12759;BME280;20944;47.048;15.390;2023-04-25T10:43:35;96632.63;;;16.74;43.29
12759;BME280;20944;47.048;15.390;2023-04-25T10:46:14;96635.03;;;17.02;46.83
12759;BME280;20944;47.048;15.390;2023-04-25T10:48:47;96621.59;;;17.18;42.21
12759;BME280;20944;47.048;15.390;2023-04-25T10:51:18;96618.28;;;17.14;42.10
12759;BME280;20944;47.048;15.390;2023-04-25T10:53:57;96616.41;;;17.16;42.10
12759;BME280;20944;47.048;15.390;2023-04-25T10:56:26;96612.41;;;16.98;42.97
12759;BME280;20944;47.048;15.390;2023-04-25T10:59:06;96617.13;;;16.67;40.75
12759;BME280;20944;47.048;15.390;2023-04-25T11:01:39;96618.56;;;16.46;45.50
12759;BME280;20944;47.048;15.390;2023-04-25T11:04:19;96590.63;;;16.16;43.43
12759;BME280;20944;47.048;15.390;2023-04-25T11:06:58;96610.13;;;16.41;45.38
12759;BME280;20944;47.048;15.390;2023-04-25T11:09:35;96598.81;;;16.64;47.16
12759;BME280;20944;47.048;15.390;2023-04-25T11:12:06;96585.94;;;16.85;44.53
12759;BME280;20944;47.048;15.390;2023-04-25T11:14:35;96605.63;;;16.94;43.63
12759;BME280;20944;47.048;15.390;2023-04-25T11:17:09;96606.78;;;16.77;43.86
12759;BME280;20944;47.048;15.390;2023-04-25T11:19:38;96592.28;;;16.83;41.21
12759;BME280;20944;47.048;15.390;2023-04-25T11:22:06;96596.19;;;17.03;43.05
12759;BME280;20944;47.048;15.390;2023-04-25T11:24:36;96586.09;;;17.20;45.09
12759;BME280;20944;47.048;15.390;2023-04-25T11:27:05;96524.03;;;16.75;42.02
12759;BME280;20944;47.048;15.390;2023-04-25T11:29:34;96590.88;;;17.03;41.23
12759;BME280;20944;47.048;15.390;2023-04-25T11:32:03;96579.44;;;16.51;41.42
12759;BME280;20944;47.048;15.390;2023-04-25T11:34:32;96591.94;;;16.49;42.23
12759;BME280;20944;47.048;15.390;2023-04-25T11:37:01;96592.91;;;16.48;41.35
12759;BME280;20944;47.048;15.390;2023-04-25T11:39:30;96579.97;;;16.31;40.94
12759;BME280;20944;47.048;15.390;2023-04-25T11:42:00;96619.41;;;16.34;41.21
12759;BME280;20944;47.048;15.390;2023-04-25T11:44:33;96619.81;;;16.28;42.78
12759;BME280;20944;47.048;15.390;2023-04-25T11:47:01;96631.53;;;16.11;44.79
12759;BME280;20944;47.048;15.390;2023-04-25T11:49:30;96630.38;;;15.88;47.74
12759;BME280;20944;47.048;15.390;2023-04-25T11:51:58;96635.38;;;15.37;51.35
12759;BME280;20944;47.048;15.390;2023-04-25T11:54:27;96654.53;;;14.98;53.21
12759;BME280;20944;47.048;15.390;2023-04-25T11:56:55;96663.94;;;14.43;48.58
12759;BME280;20944;47.048;15.390;2023-04-25T11:59:26;96576.19;;;13.67;52.95
12759;BME280;20944;47.048;15.390;2023-04-25T12:01:54;96656.47;;;14.06;51.83
12759;BME280;20944;47.048;15.390;2023-04-25T12:04:24;96651.88;;;14.09;53.50
12759;BME280;20944;47.048;15.390;2023-04-25T12:06:54;96641.25;;;14.11;53.68
12759;BME280;20944;47.048;15.390;2023-04-25T12:09:28;96605.97;;;14.13;55.31
12759;BME280;20944;47.048;15.390;2023-04-25T12:11:58;96633.75;;;14.49;58.20
12759;BME280;20944;47.048;15.390;2023-04-25T12:14:33;96630.38;;;14.31;66.04
12759;BME280;20944;47.048;15.390;2023-04-25T12:17:03;96642.72;;;14.46;61.90
12759;BME280;20944;47.048;15.390;2023-04-25T12:19:36;96634.06;;;14.59;60.24
12759;BME280;20944;47.048;15.390;2023-04-25T12:22:19;96630.03;;;14.81;58.47
12759;BME280;20944;47.048;15.390;2023-04-25T12:24:48;96629.00;;;15.13;57.02
12759;BME280;20944;47.048;15.390;2023-04-25T12:27:16;96592.91;;;15.13;53.49
12759;BME280;20944;47.048;15.390;2023-04-25T12:29:53;96623.03;;;15.37;54.35
12759;BME280;20944;47.048;15.390;2023-04-25T12:32:21;96619.72;;;15.48;51.18
12759;BME280;20944;47.048;15.390;2023-04-25T12:34:50;96614.88;;;15.55;60.75
12759;BME280;20944;47.048;15.390;2023-04-25T12:37:18;96613.84;;;15.72;57.43
12759;BME280;20944;47.048;15.390;2023-04-25T12:39:46;96623.19;;;15.90;56.91
12759;BME280;20944;47.048;15.390;2023-04-25T12:42:15;96623.13;;;15.91;54.21
12759;BME280;20944;47.048;15.390;2023-04-25T12:44:43;96621.91;;;15.83;54.31
12759;BME280;20944;47.048;15.390;2023-04-25T12:47:13;96618.69;;;15.92;57.36
12759;BME280;20944;47.048;15.390;2023-04-25T12:49:42;96619.84;;;16.01;51.35
12759;BME280;20944;47.048;15.390;2023-04-25T12:52:10;96618.63;;;15.79;52.16
12759;BME280;20944;47.048;15.390;2023-04-25T12:54:38;96608.56;;;15.57;54.77
12759;BME280;20944;47.048;15.390;2023-04-25T12:57:07;96630.63;;;15.71;52.58
12759;BME280;20944;47.048;15.390;2023-04-25T12:59:35;96605.56;;;15.63;53.89